sensor_id;sensor_type;location;lat;lon;timestamp;P1;durP1;ratioP1;P2;durP2;ratioP2
71038;SDS011;58692;43.212;27.908;2023-02-23T00:01:47;31.73;;;15.68;;
71038;SDS011;58692;43.212;27.908;2023-02-23T00:04:13;33.13;;;16.58;;
71038;SDS011;58692;43.212;27.908;2023-02-23T00:06:39;31.97;;;16.07;;
71038;SDS011;58692;43.212;27.908;2023-02-23T00:09:05;33.92;;;16.20;;
71038;SDS011;58692;43.212;27.908;2023-02-23T00:11:36;36.15;;;15.50;;
71038;SDS011;58692;43.212;27.908;2023-02-23T00:14:01;31.40;;;15.57;;
71038;SDS011;58692;43.212;27.908;2023-02-23T00:16:27;33.27;;;15.83;;
71038;SDS011;58692;43.212;27.908;2023-02-23T00:18:54;29.97;;;15.87;;
71038;SDS011;58692;43.212;27.908;2023-02-23T00:21:27;30.55;;;15.93;;
71038;SDS011;58692;43.212;27.908;2023-02-23T00:23:56;28.92;;;15.65;;
71038;SDS011;58692;43.212;27.908;2023-02-23T00:26:23;30.58;;;15.20;;
71038;SDS011;58692;43.212;27.908;2023-02-23T00:28:51;34.22;;;16.63;;
71038;SDS011;58692;43.212;27.908;2023-02-23T00:31:18;31.27;;;17.33;;
71038;SDS011;58692;43.212;27.908;2023-02-23T00:33:49;26.23;;;14.70;;
71038;SDS011;58692;43.212;27.908;2023-02-23T00:36:18;33.85;;;14.18;;
71038;SDS011;58692;43.212;27.908;2023-02-23T00:38:45;27.52;;;13.75;;
71038;SDS011;58692;43.212;27.908;2023-02-23T00:41:12;28.70;;;14.73;;
71038;SDS011;58692;43.212;27.908;2023-02-23T00:43:55;29.55;;;14.80;;
71038;SDS011;58692;43.212;27.908;2023-02-23T00:46:22;26.75;;;13.80;;
71038;SDS011;58692;43.212;27.908;2023-02-23T00:48:51;26.35;;;13.73;;
71038;SDS011;58692;43.212;27.908;2023-02-23T00:51:19;26.38;;;13.65;;
71038;SDS011;58692;43.212;27.908;2023-02-23T00:53:45;24.33;;;13.33;;
71038;SDS011;58692;43.212;27.908;2023-02-23T00:56:12;31.13;;;13.38;;
71038;SDS011;58692;43.212;27.908;2023-02-23T00:58:39;29.50;;;13.00;;
71038;SDS011;58692;43.212;27.908;2023-02-23T01:01:09;23.10;;;12.97;;
71038;SDS011;58692;43.212;27.908;2023-02-23T01:03:36;21.58;;;11.75;;
71038;SDS011;58692;43.212;27.908;2023-02-23T01:06:06;30.15;;;13.07;;
71038;SDS011;58692;43.212;27.908;2023-02-23T01:08:34;25.13;;;11.93;;
71038;SDS011;58692;43.212;27.908;2023-02-23T01:11:06;29.00;;;12.60;;
71038;SDS011;58692;43.212;27.908;2023-02-23T01:13:34;27.17;;;13.50;;
71038;SDS011;58692;43.212;27.908;2023-02-23T01:16:03;28.98;;;13.07;;
71038;SDS011;58692;43.212;27.908;2023-02-23T01:18:31;26.17;;;13.07;;
71038;SDS011;58692;43.212;27.908;2023-02-23T01:20:58;24.98;;;9.75;;
71038;SDS011;58692;43.212;27.908;2023-02-23T01:23:24;27.90;;;11.77;;
71038;SDS011;58692;43.212;27.908;2023-02-23T01:25:50;27.70;;;12.07;;
71038;SDS011;58692;43.212;27.908;2023-02-23T01:28:15;24.30;;;11.97;;
71038;SDS011;58692;43.212;27.908;2023-02-23T01:30:41;17.98;;;8.00;;
71038;SDS011;58692;43.212;27.908;2023-02-23T01:33:06;25.20;;;11.77;;
71038;SDS011;58692;43.212;27.908;2023-02-23T01:35:32;19.55;;;6.63;;
71038;SDS011;58692;43.212;27.908;2023-02-23T01:37:59;15.77;;;6.23;;
71038;SDS011;58692;43.212;27.908;2023-02-23T01:40:25;23.80;;;10.18;;
71038;SDS011;58692;43.212;27.908;2023-02-23T01:42:53;18.98;;;9.75;;
71038;SDS011;58692;43.212;27.908;2023-02-23T01:45:26;43.88;;;22.40;;
71038;SDS011;58692;43.212;27.908;2023-02-23T01:48:00;51.13;;;27.17;;
71038;SDS011;58692;43.212;27.908;2023-02-23T01:50:31;44.40;;;24.85;;
71038;SDS011;58692;43.212;27.908;2023-02-23T01:53:02;78.50;;;40.33;;
71038;SDS011;58692;43.212;27.908;2023-02-23T01:55:28;75.17;;;40.73;;
71038;SDS011;58692;43.212;27.908;2023-02-23T01:57:56;77.18;;;41.53;;
71038;SDS011;58692;43.212;27.908;2023-02-23T02:00:28;57.92;;;31.92;;
71038;SDS011;58692;43.212;27.908;2023-02-23T02:02:55;69.30;;;37.88;;
71038;SDS011;58692;43.212;27.908;2023-02-23T02:05:24;76.07;;;41.65;;
71038;SDS011;58692;43.212;27.908;2023-02-23T02:07:50;45.30;;;23.20;;
71038;SDS011;58692;43.212;27.908;2023-02-23T02:10:23;49.35;;;25.65;;
71038;SDS011;58692;43.212;27.908;2023-02-23T02:13:07;71.50;;;39.22;;
71038;SDS011;58692;43.212;27.908;2023-02-23T02:15:36;79.75;;;41.72;;
71038;SDS011;58692;43.212;27.908;2023-02-23T02:20:55;82.70;;;41.50;;
71038;SDS011;58692;43.212;27.908;2023-02-23T02:42:58;15.80;;;6.63;;
71038;SDS011;58692;43.212;27.908;2023-02-23T02:45:29;16.15;;;7.18;;
71038;SDS011;58692;43.212;27.908;2023-02-23T02:50:41;16.02;;;6.90;;
71038;SDS011;58692;43.212;27.908;2023-02-23T02:53:16;11.20;;;4.43;;
71038;SDS011;58692;43.212;27.908;2023-02-23T02:55:47;10.77;;;4.38;;
71038;SDS011;58692;43.212;27.908;2023-02-23T02:58:14;12.77;;;4.20;;
71038;SDS011;58692;43.212;27.908;2023-02-23T03:00:45;13.47;;;4.03;;
71038;SDS011;58692;43.212;27.908;2023-02-23T03:03:36;11.65;;;4.53;;
71038;SDS011;58692;43.212;27.908;2023-02-23T03:06:21;10.18;;;3.08;;
71038;SDS011;58692;43.212;27.908;2023-02-23T03:09:17;9.25;;;3.40;;
71038;SDS011;58692;43.212;27.908;2023-02-23T03:12:05;8.98;;;3.92;;
71038;SDS011;58692;43.212;27.908;2023-02-23T03:18:01;8.60;;;3.13;;
71038;SDS011;58692;43.212;27.908;2023-02-23T03:20:57;9.48;;;3.10;;
71038;SDS011;58692;43.212;27.908;2023-02-23T03:23:47;10.70;;;3.00;;
71038;SDS011;58692;43.212;27.908;2023-02-23T03:29:48;10.53;;;3.10;;
71038;SDS011;58692;43.212;27.908;2023-02-23T03:35:32;9.70;;;3.40;;
71038;SDS011;58692;43.212;27.908;2023-02-23T03:38:31;9.43;;;3.10;;
71038;SDS011;58692;43.212;27.908;2023-02-23T03:41:17;11.43;;;3.20;;
71038;SDS011;58692;43.212;27.908;2023-02-23T03:44:04;9.40;;;3.70;;
71038;SDS011;58692;43.212;27.908;2023-02-23T03:46:49;7.50;;;3.10;;
71038;SDS011;58692;43.212;27.908;2023-02-23T03:49:33;7.90;;;2.72;;
71038;SDS011;58692;43.212;27.908;2023-02-23T03:52:17;10.57;;;2.75;;
71038;SDS011;58692;43.212;27.908;2023-02-23T03:55:04;14.57;;;3.35;;
71038;SDS011;58692;43.212;27.908;2023-02-23T03:57:49;13.00;;;3.10;;
71038;SDS011;58692;43.212;27.908;2023-02-23T04:00:35;11.25;;;3.30;;
71038;SDS011;58692;43.212;27.908;2023-02-23T04:03:22;11.13;;;3.00;;
71038;SDS011;58692;43.212;27.908;2023-02-23T04:06:06;11.70;;;3.15;;
71038;SDS011;58692;43.212;27.908;2023-02-23T04:08:50;13.05;;;3.30;;
71038;SDS011;58692;43.212;27.908;2023-02-23T04:11:39;9.17;;;3.03;;
71038;SDS011;58692;43.212;27.908;2023-02-23T04:17:03;12.77;;;3.45;;
71038;SDS011;58692;43.212;27.908;2023-02-23T04:19:30;11.02;;;3.65;;
71038;SDS011;58692;43.212;27.908;2023-02-23T04:21:56;9.73;;;3.30;;
71038;SDS011;58692;43.212;27.908;2023-02-23T04:24:22;11.10;;;4.50;;
71038;SDS011;58692;43.212;27.908;2023-02-23T04:26:47;12.60;;;3.67;;
71038;SDS011;58692;43.212;27.908;2023-02-23T04:29:13;9.80;;;3.80;;
71038;SDS011;58692;43.212;27.908;2023-02-23T04:31:42;11.57;;;3.85;;
71038;SDS011;58692;43.212;27.908;2023-02-23T04:34:08;9.00;;;3.60;;
71038;SDS011;58692;43.212;27.908;2023-02-23T04:36:33;10.95;;;3.33;;
71038;SDS011;58692;43.212;27.908;2023-02-23T04:39:00;7.97;;;3.30;;
71038;SDS011;58692;43.212;27.908;2023-02-23T04:41:28;11.03;;;3.60;;
71038;SDS011;58692;43.212;27.908;2023-02-23T04:43:54;14.57;;;3.20;;
71038;SDS011;58692;43.212;27.908;2023-02-23T04:46:19;9.48;;;3.35;;
71038;SDS011;58692;43.212;27.908;2023-02-23T04:48:45;12.07;;;3.27;;
71038;SDS011;58692;43.212;27.908;2023-02-23T04:51:11;11.93;;;3.33;;
71038;SDS011;58692;43.212;27.908;2023-02-23T04:53:37;8.05;;;3.38;;
71038;SDS011;58692;43.212;27.908;2023-02-23T04:56:03;9.33;;;3.10;;
71038;SDS011;58692;43.212;27.908;2023-02-23T04:58:29;9.32;;;4.00;;
71038;SDS011;58692;43.212;27.908;2023-02-23T05:01:08;12.25;;;4.00;;
71038;SDS011;58692;43.212;27.908;2023-02-23T05:03:34;13.53;;;3.20;;
71038;SDS011;58692;43.212;27.908;2023-02-23T05:06:00;14.82;;;3.65;;
71038;SDS011;58692;43.212;27.908;2023-02-23T05:08:26;9.13;;;3.63;;
71038;SDS011;58692;43.212;27.908;2023-02-23T05:10:52;8.97;;;3.97;;
71038;SDS011;58692;43.212;27.908;2023-02-23T05:13:18;12.15;;;3.78;;
71038;SDS011;58692;43.212;27.908;2023-02-23T05:15:44;9.82;;;3.33;;
71038;SDS011;58692;43.212;27.908;2023-02-23T05:18:13;8.50;;;3.20;;
71038;SDS011;58692;43.212;27.908;2023-02-23T05:20:42;11.02;;;3.90;;
71038;SDS011;58692;43.212;27.908;2023-02-23T05:23:09;10.38;;;3.83;;
71038;SDS011;58692;43.212;27.908;2023-02-23T05:28:31;11.40;;;3.60;;
71038;SDS011;58692;43.212;27.908;2023-02-23T05:31:32;11.75;;;3.80;;
71038;SDS011;58692;43.212;27.908;2023-02-23T05:34:01;10.35;;;3.58;;
71038;SDS011;58692;43.212;27.908;2023-02-23T05:36:29;9.65;;;3.55;;
71038;SDS011;58692;43.212;27.908;2023-02-23T05:38:55;12.60;;;3.70;;
71038;SDS011;58692;43.212;27.908;2023-02-23T05:41:21;10.55;;;3.45;;
71038;SDS011;58692;43.212;27.908;2023-02-23T05:43:48;11.47;;;3.67;;
71038;SDS011;58692;43.212;27.908;2023-02-23T05:46:19;8.75;;;3.03;;
71038;SDS011;58692;43.212;27.908;2023-02-23T05:48:48;11.88;;;3.50;;
71038;SDS011;58692;43.212;27.908;2023-02-23T05:51:16;8.55;;;3.15;;
71038;SDS011;58692;43.212;27.908;2023-02-23T05:53:43;8.60;;;3.60;;
71038;SDS011;58692;43.212;27.908;2023-02-23T05:56:12;11.52;;;3.55;;
71038;SDS011;58692;43.212;27.908;2023-02-23T05:58:44;11.73;;;3.92;;
71038;SDS011;58692;43.212;27.908;2023-02-23T06:01:11;10.98;;;3.03;;
71038;SDS011;58692;43.212;27.908;2023-02-23T06:03:36;10.13;;;3.60;;
71038;SDS011;58692;43.212;27.908;2023-02-23T06:06:02;8.48;;;3.33;;
71038;SDS011;58692;43.212;27.908;2023-02-23T06:08:28;9.33;;;2.90;;
71038;SDS011;58692;43.212;27.908;2023-02-23T06:10:54;11.25;;;3.45;;
71038;SDS011;58692;43.212;27.908;2023-02-23T06:13:31;10.38;;;3.60;;
71038;SDS011;58692;43.212;27.908;2023-02-23T06:16:38;10.15;;;3.28;;
71038;SDS011;58692;43.212;27.908;2023-02-23T06:19:07;9.03;;;2.90;;
71038;SDS011;58692;43.212;27.908;2023-02-23T06:21:47;9.43;;;2.97;;
71038;SDS011;58692;43.212;27.908;2023-02-23T06:24:13;7.55;;;2.47;;
71038;SDS011;58692;43.212;27.908;2023-02-23T06:26:41;8.33;;;2.63;;
71038;SDS011;58692;43.212;27.908;2023-02-23T06:29:27;11.90;;;3.63;;
71038;SDS011;58692;43.212;27.908;2023-02-23T06:31:55;7.30;;;2.42;;
71038;SDS011;58692;43.212;27.908;2023-02-23T06:34:21;13.43;;;3.23;;
71038;SDS011;58692;43.212;27.908;2023-02-23T06:36:56;11.03;;;3.40;;
71038;SDS011;58692;43.212;27.908;2023-02-23T06:39:25;13.48;;;3.85;;
71038;SDS011;58692;43.212;27.908;2023-02-23T06:44:44;13.52;;;3.22;;
71038;SDS011;58692;43.212;27.908;2023-02-23T06:47:18;11.10;;;3.10;;
71038;SDS011;58692;43.212;27.908;2023-02-23T06:52:49;9.50;;;2.88;;
71038;SDS011;58692;43.212;27.908;2023-02-23T06:55:41;11.13;;;2.88;;
71038;SDS011;58692;43.212;27.908;2023-02-23T07:05:08;10.77;;;3.17;;
71038;SDS011;58692;43.212;27.908;2023-02-23T07:11:29;10.05;;;2.80;;
71038;SDS011;58692;43.212;27.908;2023-02-23T07:14:27;6.60;;;2.55;;
71038;SDS011;58692;43.212;27.908;2023-02-23T07:17:03;11.33;;;3.10;;
71038;SDS011;58692;43.212;27.908;2023-02-23T07:19:58;11.27;;;2.88;;
71038;SDS011;58692;43.212;27.908;2023-02-23T07:29:12;7.82;;;2.67;;
71038;SDS011;58692;43.212;27.908;2023-02-23T07:32:06;10.00;;;3.00;;
71038;SDS011;58692;43.212;27.908;2023-02-23T07:38:56;13.73;;;3.60;;
71038;SDS011;58692;43.212;27.908;2023-02-23T07:56:44;9.95;;;2.90;;
71038;SDS011;58692;43.212;27.908;2023-02-23T07:59:10;8.43;;;2.70;;
71038;SDS011;58692;43.212;27.908;2023-02-23T08:01:39;8.15;;;3.00;;
71038;SDS011;58692;43.212;27.908;2023-02-23T08:04:05;8.73;;;2.90;;
71038;SDS011;58692;43.212;27.908;2023-02-23T08:06:30;8.70;;;2.78;;
71038;SDS011;58692;43.212;27.908;2023-02-23T08:09:17;7.83;;;2.40;;
71038;SDS011;58692;43.212;27.908;2023-02-23T08:11:48;12.73;;;2.85;;
71038;SDS011;58692;43.212;27.908;2023-02-23T08:14:14;9.73;;;2.70;;
71038;SDS011;58692;43.212;27.908;2023-02-23T08:16:42;7.43;;;2.87;;
71038;SDS011;58692;43.212;27.908;2023-02-23T08:19:11;7.03;;;2.17;;
71038;SDS011;58692;43.212;27.908;2023-02-23T08:21:47;10.35;;;2.83;;
71038;SDS011;58692;43.212;27.908;2023-02-23T08:24:23;8.88;;;2.70;;
71038;SDS011;58692;43.212;27.908;2023-02-23T08:29:40;11.43;;;2.87;;
71038;SDS011;58692;43.212;27.908;2023-02-23T08:32:32;10.60;;;2.70;;
71038;SDS011;58692;43.212;27.908;2023-02-23T08:35:00;10.32;;;2.83;;
71038;SDS011;58692;43.212;27.908;2023-02-23T08:40:45;7.45;;;2.47;;
71038;SDS011;58692;43.212;27.908;2023-02-23T08:43:41;8.00;;;2.40;;
71038;SDS011;58692;43.212;27.908;2023-02-23T08:46:10;8.88;;;2.10;;
71038;SDS011;58692;43.212;27.908;2023-02-23T08:48:39;8.35;;;2.45;;
71038;SDS011;58692;43.212;27.908;2023-02-23T08:51:07;5.05;;;1.65;;
71038;SDS011;58692;43.212;27.908;2023-02-23T08:53:33;9.07;;;2.37;;
71038;SDS011;58692;43.212;27.908;2023-02-23T08:56:01;7.50;;;2.50;;
71038;SDS011;58692;43.212;27.908;2023-02-23T08:58:29;9.30;;;2.92;;
71038;SDS011;58692;43.212;27.908;2023-02-23T09:00:55;8.82;;;2.47;;
71038;SDS011;58692;43.212;27.908;2023-02-23T09:03:24;6.63;;;2.58;;
71038;SDS011;58692;43.212;27.908;2023-02-23T09:05:52;11.20;;;2.77;;
71038;SDS011;58692;43.212;27.908;2023-02-23T09:08:19;9.20;;;2.92;;
71038;SDS011;58692;43.212;27.908;2023-02-23T09:10:45;7.90;;;2.50;;
71038;SDS011;58692;43.212;27.908;2023-02-23T09:13:11;11.15;;;2.30;;
71038;SDS011;58692;43.212;27.908;2023-02-23T09:18:31;6.07;;;2.27;;
71038;SDS011;58692;43.212;27.908;2023-02-23T09:20:58;10.93;;;2.50;;
71038;SDS011;58692;43.212;27.908;2023-02-23T09:23:31;5.68;;;2.28;;
71038;SDS011;58692;43.212;27.908;2023-02-23T09:26:02;9.48;;;2.25;;
71038;SDS011;58692;43.212;27.908;2023-02-23T09:28:34;9.40;;;2.58;;
71038;SDS011;58692;43.212;27.908;2023-02-23T09:31:10;4.60;;;2.00;;
71038;SDS011;58692;43.212;27.908;2023-02-23T09:33:49;8.77;;;2.80;;
71038;SDS011;58692;43.212;27.908;2023-02-23T09:36:17;9.25;;;2.67;;
71038;SDS011;58692;43.212;27.908;2023-02-23T09:38:47;10.07;;;2.47;;
71038;SDS011;58692;43.212;27.908;2023-02-23T09:41:42;6.80;;;2.28;;
71038;SDS011;58692;43.212;27.908;2023-02-23T09:44:22;8.87;;;2.93;;
71038;SDS011;58692;43.212;27.908;2023-02-23T09:49:55;7.00;;;2.35;;
71038;SDS011;58692;43.212;27.908;2023-02-23T09:52:39;6.82;;;1.98;;
71038;SDS011;58692;43.212;27.908;2023-02-23T09:55:10;6.57;;;2.10;;
71038;SDS011;58692;43.212;27.908;2023-02-23T09:57:38;11.30;;;2.67;;
71038;SDS011;58692;43.212;27.908;2023-02-23T10:00:16;7.72;;;2.03;;
71038;SDS011;58692;43.212;27.908;2023-02-23T10:05:52;8.35;;;2.38;;
71038;SDS011;58692;43.212;27.908;2023-02-23T10:08:29;8.32;;;2.20;;
71038;SDS011;58692;43.212;27.908;2023-02-23T10:17:08;10.68;;;2.97;;
71038;SDS011;58692;43.212;27.908;2023-02-23T10:19:49;7.85;;;1.90;;
71038;SDS011;58692;43.212;27.908;2023-02-23T10:22:27;4.88;;;1.85;;
71038;SDS011;58692;43.212;27.908;2023-02-23T10:25:05;10.07;;;3.03;;
71038;SDS011;58692;43.212;27.908;2023-02-23T10:27:48;7.82;;;2.20;;
71038;SDS011;58692;43.212;27.908;2023-02-23T10:30:30;6.10;;;2.15;;
71038;SDS011;58692;43.212;27.908;2023-02-23T10:36:04;7.53;;;2.30;;
71038;SDS011;58692;43.212;27.908;2023-02-23T10:38:38;11.00;;;2.43;;
71038;SDS011;58692;43.212;27.908;2023-02-23T10:41:12;6.97;;;2.50;;
71038;SDS011;58692;43.212;27.908;2023-02-23T10:43:37;6.57;;;2.20;;
71038;SDS011;58692;43.212;27.908;2023-02-23T10:46:04;8.85;;;2.13;;
71038;SDS011;58692;43.212;27.908;2023-02-23T10:48:33;5.30;;;1.70;;
71038;SDS011;58692;43.212;27.908;2023-02-23T10:51:13;9.63;;;2.85;;
71038;SDS011;58692;43.212;27.908;2023-02-23T10:53:43;10.20;;;2.60;;
71038;SDS011;58692;43.212;27.908;2023-02-23T10:58:42;8.52;;;2.60;;
71038;SDS011;58692;43.212;27.908;2023-02-23T11:01:11;9.85;;;2.40;;
71038;SDS011;58692;43.212;27.908;2023-02-23T11:03:49;12.27;;;3.63;;
71038;SDS011;58692;43.212;27.908;2023-02-23T11:06:46;9.45;;;2.80;;
71038;SDS011;58692;43.212;27.908;2023-02-23T11:09:24;10.30;;;3.30;;
71038;SDS011;58692;43.212;27.908;2023-02-23T11:12:03;6.88;;;2.35;;
71038;SDS011;58692;43.212;27.908;2023-02-23T11:18:00;7.20;;;2.30;;
71038;SDS011;58692;43.212;27.908;2023-02-23T11:20:51;8.90;;;2.78;;
71038;SDS011;58692;43.212;27.908;2023-02-23T11:26:31;10.43;;;2.55;;
71038;SDS011;58692;43.212;27.908;2023-02-23T11:29:16;12.75;;;2.65;;
71038;SDS011;58692;43.212;27.908;2023-02-23T11:31:53;8.63;;;2.53;;
71038;SDS011;58692;43.212;27.908;2023-02-23T11:34:47;6.63;;;2.25;;
71038;SDS011;58692;43.212;27.908;2023-02-23T11:37:48;7.93;;;2.30;;
71038;SDS011;58692;43.212;27.908;2023-02-23T11:40:25;7.43;;;2.22;;
71038;SDS011;58692;43.212;27.908;2023-02-23T11:45:33;6.25;;;2.20;;
71038;SDS011;58692;43.212;27.908;2023-02-23T11:48:17;8.00;;;2.45;;
71038;SDS011;58692;43.212;27.908;2023-02-23T11:50:47;9.93;;;2.40;;
71038;SDS011;58692;43.212;27.908;2023-02-23T11:53:15;8.55;;;2.85;;
71038;SDS011;58692;43.212;27.908;2023-02-23T11:55:52;6.93;;;2.42;;
71038;SDS011;58692;43.212;27.908;2023-02-23T11:58:25;10.55;;;2.40;;
71038;SDS011;58692;43.212;27.908;2023-02-23T12:01:05;8.70;;;2.42;;
71038;SDS011;58692;43.212;27.908;2023-02-23T12:03:36;9.80;;;2.80;;
71038;SDS011;58692;43.212;27.908;2023-02-23T12:06:08;5.93;;;2.17;;
71038;SDS011;58692;43.212;27.908;2023-02-23T12:11:23;5.22;;;2.00;;
71038;SDS011;58692;43.212;27.908;2023-02-23T12:13:54;6.63;;;2.42;;
71038;SDS011;58692;43.212;27.908;2023-02-23T12:21:42;8.80;;;2.10;;
71038;SDS011;58692;43.212;27.908;2023-02-23T12:24:46;11.57;;;2.90;;
71038;SDS011;58692;43.212;27.908;2023-02-23T12:29:35;9.83;;;2.70;;
71038;SDS011;58692;43.212;27.908;2023-02-23T12:32:19;7.95;;;2.28;;
71038;SDS011;58692;43.212;27.908;2023-02-23T12:37:28;11.05;;;2.55;;
71038;SDS011;58692;43.212;27.908;2023-02-23T12:40:10;8.48;;;2.50;;
71038;SDS011;58692;43.212;27.908;2023-02-23T12:43:16;18.07;;;2.93;;
71038;SDS011;58692;43.212;27.908;2023-02-23T12:46:02;5.07;;;1.83;;
71038;SDS011;58692;43.212;27.908;2023-02-23T12:48:36;9.13;;;2.53;;
71038;SDS011;58692;43.212;27.908;2023-02-23T12:53:47;9.07;;;2.35;;
71038;SDS011;58692;43.212;27.908;2023-02-23T13:01:45;10.00;;;2.80;;
71038;SDS011;58692;43.212;27.908;2023-02-23T13:18:27;4.47;;;1.50;;
71038;SDS011;58692;43.212;27.908;2023-02-23T13:29:35;8.20;;;1.70;;
71038;SDS011;58692;43.212;27.908;2023-02-23T13:32:42;8.47;;;2.23;;
71038;SDS011;58692;43.212;27.908;2023-02-23T13:35:13;6.75;;;1.90;;
71038;SDS011;58692;43.212;27.908;2023-02-23T13:43:22;10.48;;;2.65;;
71038;SDS011;58692;43.212;27.908;2023-02-23T13:45:56;8.63;;;2.40;;
71038;SDS011;58692;43.212;27.908;2023-02-23T13:51:17;10.02;;;2.78;;
71038;SDS011;58692;43.212;27.908;2023-02-23T13:59:21;8.57;;;2.20;;
71038;SDS011;58692;43.212;27.908;2023-02-23T14:01:53;10.13;;;2.53;;
71038;SDS011;58692;43.212;27.908;2023-02-23T14:04:25;11.60;;;3.28;;
71038;SDS011;58692;43.212;27.908;2023-02-23T14:07:02;13.05;;;3.05;;
71038;SDS011;58692;43.212;27.908;2023-02-23T14:09:48;9.32;;;2.45;;
71038;SDS011;58692;43.212;27.908;2023-02-23T14:12:40;8.50;;;2.63;;
71038;SDS011;58692;43.212;27.908;2023-02-23T14:18:52;9.23;;;2.67;;
71038;SDS011;58692;43.212;27.908;2023-02-23T14:21:41;7.60;;;2.88;;
71038;SDS011;58692;43.212;27.908;2023-02-23T14:24:24;10.38;;;3.05;;
71038;SDS011;58692;43.212;27.908;2023-02-23T14:27:18;9.17;;;3.17;;
71038;SDS011;58692;43.212;27.908;2023-02-23T14:30:49;8.38;;;2.70;;
71038;SDS011;58692;43.212;27.908;2023-02-23T14:33:35;13.23;;;3.33;;
71038;SDS011;58692;43.212;27.908;2023-02-23T14:38:59;8.68;;;2.35;;
71038;SDS011;58692;43.212;27.908;2023-02-23T14:41:30;9.20;;;2.70;;
71038;SDS011;58692;43.212;27.908;2023-02-23T14:46:52;9.65;;;2.42;;
71038;SDS011;58692;43.212;27.908;2023-02-23T14:49:24;8.25;;;2.75;;
71038;SDS011;58692;43.212;27.908;2023-02-23T14:51:53;9.30;;;2.83;;
71038;SDS011;58692;43.212;27.908;2023-02-23T14:54:22;8.47;;;2.27;;
71038;SDS011;58692;43.212;27.908;2023-02-23T14:56:57;7.22;;;2.80;;
71038;SDS011;58692;43.212;27.908;2023-02-23T15:02:17;6.13;;;2.38;;
71038;SDS011;58692;43.212;27.908;2023-02-23T15:04:45;12.18;;;3.22;;
71038;SDS011;58692;43.212;27.908;2023-02-23T15:07:19;6.80;;;2.53;;
71038;SDS011;58692;43.212;27.908;2023-02-23T15:09:56;10.07;;;3.05;;
71038;SDS011;58692;43.212;27.908;2023-02-23T15:12:27;8.63;;;2.72;;
71038;SDS011;58692;43.212;27.908;2023-02-23T15:17:56;8.50;;;3.00;;
71038;SDS011;58692;43.212;27.908;2023-02-23T15:20:26;10.83;;;2.93;;
71038;SDS011;58692;43.212;27.908;2023-02-23T15:22:58;8.25;;;2.70;;
71038;SDS011;58692;43.212;27.908;2023-02-23T15:25:34;10.43;;;2.50;;
71038;SDS011;58692;43.212;27.908;2023-02-23T15:30:49;9.32;;;2.70;;
71038;SDS011;58692;43.212;27.908;2023-02-23T15:33:17;10.53;;;2.67;;
71038;SDS011;58692;43.212;27.908;2023-02-23T15:38:53;10.88;;;3.05;;
71038;SDS011;58692;43.212;27.908;2023-02-23T15:41:26;11.73;;;3.38;;
71038;SDS011;58692;43.212;27.908;2023-02-23T15:44:02;10.90;;;3.15;;
71038;SDS011;58692;43.212;27.908;2023-02-23T15:46:36;11.40;;;3.53;;
71038;SDS011;58692;43.212;27.908;2023-02-23T15:49:15;12.60;;;3.40;;
71038;SDS011;58692;43.212;27.908;2023-02-23T15:51:44;13.55;;;3.17;;
71038;SDS011;58692;43.212;27.908;2023-02-23T15:54:23;15.43;;;4.07;;
71038;SDS011;58692;43.212;27.908;2023-02-23T15:56:57;10.05;;;3.08;;
71038;SDS011;58692;43.212;27.908;2023-02-23T15:59:27;11.27;;;3.50;;
71038;SDS011;58692;43.212;27.908;2023-02-23T16:01:59;9.75;;;3.10;;
71038;SDS011;58692;43.212;27.908;2023-02-23T16:04:30;21.30;;;4.40;;
71038;SDS011;58692;43.212;27.908;2023-02-23T16:07:07;13.23;;;3.50;;
71038;SDS011;58692;43.212;27.908;2023-02-23T16:09:45;10.57;;;3.70;;
71038;SDS011;58692;43.212;27.908;2023-02-23T16:12:20;9.73;;;3.63;;
71038;SDS011;58692;43.212;27.908;2023-02-23T16:14:51;12.65;;;3.88;;
71038;SDS011;58692;43.212;27.908;2023-02-23T16:17:25;14.82;;;4.25;;
71038;SDS011;58692;43.212;27.908;2023-02-23T16:19:53;17.58;;;4.43;;
71038;SDS011;58692;43.212;27.908;2023-02-23T16:22:23;8.63;;;3.30;;
71038;SDS011;58692;43.212;27.908;2023-02-23T16:24:55;13.30;;;4.33;;
71038;SDS011;58692;43.212;27.908;2023-02-23T16:27:27;12.82;;;3.67;;
71038;SDS011;58692;43.212;27.908;2023-02-23T16:29:55;13.05;;;3.78;;
71038;SDS011;58692;43.212;27.908;2023-02-23T16:32:24;11.40;;;3.40;;
71038;SDS011;58692;43.212;27.908;2023-02-23T16:34:59;6.57;;;2.50;;
71038;SDS011;58692;43.212;27.908;2023-02-23T16:37:26;28.03;;;3.90;;
71038;SDS011;58692;43.212;27.908;2023-02-23T16:39:53;14.38;;;4.13;;
71038;SDS011;58692;43.212;27.908;2023-02-23T16:44:49;14.95;;;4.07;;
71038;SDS011;58692;43.212;27.908;2023-02-23T16:47:28;16.77;;;4.30;;
71038;SDS011;58692;43.212;27.908;2023-02-23T16:49:57;8.63;;;3.30;;
71038;SDS011;58692;43.212;27.908;2023-02-23T16:52:23;14.57;;;4.10;;
71038;SDS011;58692;43.212;27.908;2023-02-23T16:54:49;11.23;;;4.05;;
71038;SDS011;58692;43.212;27.908;2023-02-23T16:57:20;16.27;;;4.00;;
71038;SDS011;58692;43.212;27.908;2023-02-23T16:59:50;11.85;;;4.00;;
71038;SDS011;58692;43.212;27.908;2023-02-23T17:02:17;12.10;;;3.40;;
71038;SDS011;58692;43.212;27.908;2023-02-23T17:04:44;13.00;;;3.50;;
71038;SDS011;58692;43.212;27.908;2023-02-23T17:07:14;10.18;;;3.30;;
71038;SDS011;58692;43.212;27.908;2023-02-23T17:09:40;16.52;;;3.40;;
71038;SDS011;58692;43.212;27.908;2023-02-23T17:12:10;10.15;;;2.75;;
71038;SDS011;58692;43.212;27.908;2023-02-23T17:14:38;12.43;;;4.55;;
71038;SDS011;58692;43.212;27.908;2023-02-23T17:17:04;16.20;;;3.70;;
71038;SDS011;58692;43.212;27.908;2023-02-23T17:19:30;10.93;;;3.10;;
71038;SDS011;58692;43.212;27.908;2023-02-23T17:21:55;13.32;;;3.50;;
71038;SDS011;58692;43.212;27.908;2023-02-23T17:24:21;16.43;;;3.80;;
71038;SDS011;58692;43.212;27.908;2023-02-23T17:26:50;11.77;;;3.97;;
71038;SDS011;58692;43.212;27.908;2023-02-23T17:29:16;11.15;;;3.53;;
71038;SDS011;58692;43.212;27.908;2023-02-23T17:31:44;9.63;;;3.07;;
71038;SDS011;58692;43.212;27.908;2023-02-23T17:34:12;11.27;;;3.13;;
71038;SDS011;58692;43.212;27.908;2023-02-23T17:36:37;9.82;;;4.07;;
71038;SDS011;58692;43.212;27.908;2023-02-23T17:39:03;13.93;;;3.57;;
71038;SDS011;58692;43.212;27.908;2023-02-23T17:41:30;11.13;;;3.72;;
71038;SDS011;58692;43.212;27.908;2023-02-23T17:43:56;12.73;;;3.22;;
71038;SDS011;58692;43.212;27.908;2023-02-23T17:46:22;12.80;;;3.50;;
71038;SDS011;58692;43.212;27.908;2023-02-23T17:48:48;11.57;;;3.40;;
71038;SDS011;58692;43.212;27.908;2023-02-23T17:51:13;9.18;;;2.97;;
71038;SDS011;58692;43.212;27.908;2023-02-23T17:53:41;8.03;;;3.07;;
71038;SDS011;58692;43.212;27.908;2023-02-23T17:56:07;10.07;;;2.80;;
71038;SDS011;58692;43.212;27.908;2023-02-23T17:58:34;16.52;;;3.55;;
71038;SDS011;58692;43.212;27.908;2023-02-23T18:01:01;12.70;;;3.70;;
71038;SDS011;58692;43.212;27.908;2023-02-23T18:03:29;15.73;;;3.70;;
71038;SDS011;58692;43.212;27.908;2023-02-23T18:06:04;13.60;;;3.70;;
71038;SDS011;58692;43.212;27.908;2023-02-23T18:08:31;11.85;;;3.70;;
71038;SDS011;58692;43.212;27.908;2023-02-23T18:10:58;12.73;;;3.58;;
71038;SDS011;58692;43.212;27.908;2023-02-23T18:13:24;13.50;;;3.42;;
71038;SDS011;58692;43.212;27.908;2023-02-23T18:15:52;10.90;;;3.13;;
71038;SDS011;58692;43.212;27.908;2023-02-23T18:18:19;7.07;;;2.40;;
71038;SDS011;58692;43.212;27.908;2023-02-23T18:20:48;12.95;;;4.28;;